SondeTracker

Meteorological Radiosondes Database

Operations

Sounding was ended - last measurement: 2022-12-06 01:27:32z

MAP
About Radiosonde

Number: D22036580 (22036580)

Launch Site: Chanhassen [MN] (US)

Type: DFM17

AUX: NO

Frequency: 403.610 MHz

Max Speed: 237 km/h at 10475 m

Average Speed: 135.67 km/h

Max Altitude: 30840 m

Average Ascent Speed: 5.39 m/s

Average Descent Speed: 8.56 m/s

Status: UNKNOWN

Status Changes
Launch Site Type AUX Frequency Status Finder Landing Point Description Changes made by
APRS Statistics

Received Frames: 321

First Frame [UTC]: 2022-12-05 23:23:33z

Last Frame [UTC]: 2022-12-06 01:27:32z

Receivers: kc9nik, KE0YJJ

Flight Time: 02:03:59 h

Distance From First Measurement: 290.80 km

Nearest City: Weston [WI] (US) [6.22 km]

Nearest Hunter: [0.00 km]

Ground Altitude: 380 m

Distance from QTH: 0.00 km

APRS Data
Receiver Number Date/Time [UTC] φ λ Course [°] Speed [km/h] Altitude [m] Description
KE0YJJD220365802022-12-06 01:27:3244.9457-89.5356801244890Clb=-3.3m/s t=-23.1C h=-1.0% p=-1.0hPa 403.611 MHz Type=DFM17 ser=22036580 Radiosonde
KE0YJJD220365802022-12-06 01:26:2944.9422-89.5686811205160Clb=-3.6m/s t=-25.5C h=-1.0% p=-1.0hPa 403.611 MHz Type=DFM17 ser=22036580 Radiosonde
KE0YJJD220365802022-12-06 01:25:5844.9419-89.5708801205179Clb=-3.6m/s t=-25.6C h=-1.0% p=-1.0hPa 403.611 MHz Type=DFM17 ser=22036580 Radiosonde
KE0YJJD220365802022-12-06 01:25:2744.9401-89.5852781135304Clb=-3.8m/s t=-26.6C h=-1.0% p=-1.0hPa 403.611 MHz Type=DFM17 ser=22036580 Radiosonde
KE0YJJD220365802022-12-06 01:24:5644.9369-89.6085811245517Clb=-3.8m/s t=-27.6C h=-1.0% p=-1.0hPa 403.611 MHz Type=DFM17 ser=22036580 Radiosonde
KE0YJJD220365802022-12-06 01:24:2544.9361-89.617841205591Clb=-3.6m/s t=-28.2C h=-1.0% p=-1.0hPa 403.611 MHz Type=DFM17 ser=22036580 Radiosonde
KE0YJJD220365802022-12-06 01:23:5444.9356-89.6226821305641Clb=-3.6m/s t=-28.6C h=-1.0% p=-1.0hPa 403.611 MHz Type=DFM17 ser=22036580 Radiosonde
KE0YJJD220365802022-12-06 01:23:2344.9345-89.6383831355777Clb=-3.9m/s t=-29.4C h=-1.0% p=-1.0hPa 403.611 MHz Type=DFM17 ser=22036580 Radiosonde
KE0YJJD220365802022-12-06 01:22:5244.9338-89.6522871435890Clb=-4.1m/s t=-29.9C h=-1.0% p=-1.0hPa 403.611 MHz Type=DFM17 ser=22036580 Radiosonde
KE0YJJD220365802022-12-06 01:22:2144.9325-89.6749831566062Clb=-4.0m/s t=-30.6C h=-1.0% p=-1.0hPa 403.611 MHz Type=DFM17 ser=22036580 Radiosonde
KE0YJJD220365802022-12-06 01:21:5044.9315-89.6867821596148Clb=-4.0m/s t=-31.2C h=-1.0% p=-1.0hPa 403.611 MHz Type=DFM17 ser=22036580 Radiosonde
KE0YJJD220365802022-12-06 01:21:1944.9299-89.7042811706272Clb=-4.1m/s t=-31.6C h=-1.0% p=-1.0hPa 403.611 MHz Type=DFM17 ser=22036580 Radiosonde
KE0YJJD220365802022-12-06 01:20:4844.9281-89.7224821726396Clb=-3.9m/s t=-32.4C h=-1.0% p=-1.0hPa 403.611 MHz Type=DFM17 ser=22036580 Radiosonde
KE0YJJD220365802022-12-06 01:20:1744.926-89.7414811786523Clb=-3.8m/s t=-33.3C h=-1.0% p=-1.0hPa 403.611 MHz Type=DFM17 ser=22036580 Radiosonde
KE0YJJD220365802022-12-06 01:19:4644.9236-89.7604781806650Clb=-4.0m/s t=-34.2C h=-1.0% p=-1.0hPa 403.611 MHz Type=DFM17 ser=22036580 Radiosonde
KE0YJJD220365802022-12-06 01:19:1544.9207-89.7806771786788Clb=-4.0m/s t=-35.2C h=-1.0% p=-1.0hPa 403.611 MHz Type=DFM17 ser=22036580 Radiosonde
KE0YJJD220365802022-12-06 01:18:4444.918-89.799791746910Clb=-3.9m/s t=-36.1C h=-1.0% p=-1.0hPa 403.611 MHz Type=DFM17 ser=22036580 Radiosonde
KE0YJJD220365802022-12-06 01:18:1344.9156-89.818801767037Clb=-3.9m/s t=-37.0C h=-1.0% p=-1.0hPa 403.611 MHz Type=DFM17 ser=22036580 Radiosonde
KE0YJJD220365802022-12-06 01:17:4444.913-89.8376771837163Clb=-4.2m/s t=-37.7C h=-1.0% p=-1.0hPa 403.611 MHz Type=DFM17 ser=22036580 Radiosonde
KE0YJJD220365802022-12-06 01:17:1144.9101-89.8575771877290Clb=-4.1m/s t=-38.4C h=-1.0% p=-1.0hPa 403.611 MHz Type=DFM17 ser=22036580 Radiosonde
KE0YJJD220365802022-12-06 01:16:3944.907-89.8784791937422Clb=-4.4m/s t=-39.2C h=-1.0% p=-1.0hPa 403.611 MHz Type=DFM17 ser=22036580 Radiosonde
KE0YJJD220365802022-12-06 01:16:0844.9042-89.8985791917550Clb=-4.3m/s t=-40.3C h=-1.0% p=-1.0hPa 403.611 MHz Type=DFM17 ser=22036580 Radiosonde
KE0YJJD220365802022-12-06 01:15:3944.9014-89.9193791967687Clb=-4.5m/s t=-41.5C h=-1.0% p=-1.0hPa 403.611 MHz Type=DFM17 ser=22036580 Radiosonde
KE0YJJD220365802022-12-06 01:15:1044.8987-89.9402801947832Clb=-4.6m/s t=-42.8C h=-1.0% p=-1.0hPa 403.611 MHz Type=DFM17 ser=22036580 Radiosonde
KE0YJJD220365802022-12-06 01:14:4044.8961-89.9617801987982Clb=-5.0m/s t=-44.0C h=-1.0% p=-1.0hPa 403.611 MHz Type=DFM17 ser=22036580 Radiosonde
KE0YJJD220365802022-12-06 01:14:1044.8936-89.9839801968145Clb=-5.1m/s t=-45.5C h=-1.0% p=-1.0hPa 403.611 MHz Type=DFM17 ser=22036580 Radiosonde
KE0YJJD220365802022-12-06 01:13:3944.8913-90.0045801968299Clb=-5.3m/s t=-46.5C h=-1.0% p=-1.0hPa 403.611 MHz Type=DFM17 ser=22036580 Radiosonde
KE0YJJD220365802022-12-06 01:13:0844.8886-90.0261802048468Clb=-5.5m/s t=-47.5C h=-1.0% p=-1.0hPa 403.611 MHz Type=DFM17 ser=22036580 Radiosonde
KE0YJJD220365802022-12-06 01:12:3844.8864-90.0475821938637Clb=-5.5m/s t=-48.4C h=-1.0% p=-1.0hPa 403.611 MHz Type=DFM17 ser=22036580 Radiosonde
KE0YJJD220365802022-12-06 01:12:0544.8845-90.0681821878804Clb=-5.4m/s t=-49.6C h=-1.0% p=-1.0hPa 403.611 MHz Type=DFM17 ser=22036580 Radiosonde
KE0YJJD220365802022-12-06 01:11:3344.8825-90.089821988969Clb=-5.3m/s t=-50.2C h=-1.0% p=-1.0hPa 403.611 MHz Type=DFM17 ser=22036580 Radiosonde
KE0YJJD220365802022-12-06 01:11:0144.8805-90.1107831989127Clb=-5.1m/s t=-51.0C h=-1.0% p=-1.0hPa 403.611 MHz Type=DFM17 ser=22036580 Radiosonde
KE0YJJD220365802022-12-06 01:10:3044.879-90.1327841989288Clb=-5.1m/s t=-51.6C h=-1.0% p=-1.0hPa 403.611 MHz Type=DFM17 ser=22036580 Radiosonde
KE0YJJD220365802022-12-06 01:09:5944.8773-90.1545832009447Clb=-4.8m/s t=-52.4C h=-1.0% p=-1.0hPa 403.611 MHz Type=DFM17 ser=22036580 Radiosonde
KE0YJJD220365802022-12-06 01:09:3044.8756-90.1758832029602Clb=-5.2m/s t=-53.0C h=-1.0% p=-1.0hPa 403.611 MHz Type=DFM17 ser=22036580 Radiosonde
KE0YJJD220365802022-12-06 01:08:5844.8739-90.1987842069771Clb=-5.2m/s t=-53.5C h=-1.0% p=-1.0hPa 403.611 MHz Type=DFM17 ser=22036580 Radiosonde
KE0YJJD220365802022-12-06 01:08:2444.8727-90.2218852179936Clb=-5.5m/s t=-53.6C h=-1.0% p=-1.0hPa 403.611 MHz Type=DFM17 ser=22036580 Radiosonde
KE0YJJD220365802022-12-06 01:07:5144.871-90.2468323010107Clb=-5.8m/s t=-54.2C h=-1.0% p=-1.0hPa 403.611 MHz Type=DFM17 ser=22036580 Radiosonde
KE0YJJD220365802022-12-06 01:07:2244.8692-90.27128423310287Clb=-6.0m/s t=-54.6C h=-1.0% p=-1.0hPa 403.611 MHz Type=DFM17 ser=22036580 Radiosonde
KE0YJJD220365802022-12-06 01:06:4944.8681-90.29728723710475Clb=-6.0m/s t=-55.5C h=-1.0% p=-1.0hPa 403.611 MHz Type=DFM17 ser=22036580 Radiosonde
KE0YJJD220365802022-12-06 01:06:4244.8671-90.32218521910663Clb=-6.3m/s t=-55.9C h=-1.0% p=-1.0hPa 403.611 MHz Type=DFM17 ser=22036580 Radiosonde
KE0YJJD220365802022-12-06 01:06:4144.866-90.3538821510917Clb=-6.2m/s t=-56.2C h=-1.0% p=-1.0hPa 403.611 MHz Type=DFM17 ser=22036580 Radiosonde
KE0YJJD220365802022-12-06 01:06:3244.8643-90.38798421711206Clb=-6.2m/s t=-57.1C h=-1.0% p=-1.0hPa 403.611 MHz Type=DFM17 ser=22036580 Radiosonde
KE0YJJD220365802022-12-06 01:06:1044.8637-90.39548421311268Clb=-6.4m/s t=-57.4C h=-1.0% p=-1.0hPa 403.611 MHz Type=DFM17 ser=22036580 Radiosonde
KE0YJJD220365802022-12-06 01:05:5844.8623-90.41468320911431Clb=-5.9m/s t=-58.4C h=-1.0% p=-1.0hPa 403.611 MHz Type=DFM17 ser=22036580 Radiosonde
KE0YJJD220365802022-12-06 01:05:5344.8606-90.43828521711629Clb=-6.6m/s t=-57.8C h=-1.0% p=-1.0hPa 403.611 MHz Type=DFM17 ser=22036580 Radiosonde
KE0YJJD220365802022-12-06 01:05:4744.8597-90.46118720611827Clb=-6.2m/s t=-58.2C h=-1.0% p=-1.0hPa 403.611 MHz Type=DFM17 ser=22036580 Radiosonde
KE0YJJD220365802022-12-06 01:05:3644.8588-90.48398620012035Clb=-6.7m/s t=-58.6C h=-1.0% p=-1.0hPa 403.611 MHz Type=DFM17 ser=22036580 Radiosonde
KE0YJJD220365802022-12-06 01:05:0644.8579-90.50518620212235Clb=-6.6m/s t=-58.1C h=-1.0% p=-1.0hPa 403.611 MHz Type=DFM17 ser=22036580 Radiosonde
KE0YJJD220365802022-12-06 01:04:5944.8564-90.52728320612442Clb=-7.2m/s t=-58.1C h=-1.0% p=-1.0hPa 403.611 MHz Type=DFM17 ser=22036580 Radiosonde
KE0YJJD220365802022-12-06 01:04:5544.8549-90.54988420612648Clb=-6.8m/s t=-57.6C h=-1.0% p=-1.0hPa 403.611 MHz Type=DFM17 ser=22036580 Radiosonde
KE0YJJD220365802022-12-06 01:04:2644.8537-90.57318820012870Clb=-6.7m/s t=-57.7C h=-1.0% p=-1.0hPa 403.611 MHz Type=DFM17 ser=22036580 Radiosonde
KE0YJJD220365802022-12-06 01:03:4544.8535-90.59418820013071Clb=-6.8m/s t=-57.9C h=-1.0% p=-1.0hPa 403.611 MHz Type=DFM17 ser=22036580 Radiosonde
KE0YJJD220365802022-12-06 01:03:0244.8529-90.61588520013286Clb=-6.8m/s t=-58.1C h=-1.0% p=-1.0hPa 403.611 MHz Type=DFM17 ser=22036580 Radiosonde
KE0YJJD220365802022-12-06 01:02:2244.8517-90.63778619813506Clb=-7.5m/s t=-58.1C h=-1.0% p=-1.0hPa 403.611 MHz Type=DFM17 ser=22036580 Radiosonde
KE0YJJD220365802022-12-06 01:01:3944.8512-90.65848818013737Clb=-7.5m/s t=-58.2C h=-1.0% p=-1.0hPa 403.611 MHz Type=DFM17 ser=22036580 Radiosonde
KE0YJJD220365802022-12-06 01:00:5344.8513-90.67939017613984Clb=-7.6m/s t=-58.0C h=-1.0% p=-1.0hPa 403.611 MHz Type=DFM17 ser=22036580 Radiosonde
KE0YJJD220365802022-12-06 01:00:0944.8518-90.6989317214220Clb=-7.7m/s t=-58.1C h=-1.0% p=-1.0hPa 403.611 MHz Type=DFM17 ser=22036580 Radiosonde
KE0YJJD220365802022-12-06 00:59:2744.8524-90.71718917614464Clb=-7.9m/s t=-58.9C h=-1.0% p=-1.0hPa 403.611 MHz Type=DFM17 ser=22036580 Radiosonde
KE0YJJD220365802022-12-06 00:58:4444.8517-90.73568616314720Clb=-8.8m/s t=-58.6C h=-1.0% p=-1.0hPa 403.611 MHz Type=DFM17 ser=22036580 Radiosonde
KE0YJJD220365802022-12-06 00:58:0144.8521-90.7549417014980Clb=-8.0m/s t=-58.7C h=-1.0% p=-1.0hPa 403.611 MHz Type=DFM17 ser=22036580 Radiosonde
KE0YJJD220365802022-12-06 00:57:1344.8532-90.77199314615255Clb=-8.7m/s t=-59.5C h=-1.0% p=-1.0hPa 403.611 MHz Type=DFM17 ser=22036580 Radiosonde
KE0YJJD220365802022-12-06 00:56:2844.8534-90.78639113515521Clb=-9.1m/s t=-58.8C h=-1.0% p=-1.0hPa 403.611 MHz Type=DFM17 ser=22036580 Radiosonde
KE0YJJD220365802022-12-06 00:55:4244.853-90.80048712615801Clb=-8.7m/s t=-58.4C h=-1.0% p=-1.0hPa 403.611 MHz Type=DFM17 ser=22036580 Radiosonde
KE0YJJD220365802022-12-06 00:54:5744.8524-90.81398912016082Clb=-9.1m/s t=-59.2C h=-1.0% p=-1.0hPa 403.611 MHz Type=DFM17 ser=22036580 Radiosonde
KE0YJJD220365802022-12-06 00:54:1044.8518-90.82778413316367Clb=-9.3m/s t=-60.5C h=-1.0% p=-1.0hPa 403.611 MHz Type=DFM17 ser=22036580 Radiosonde
KE0YJJD220365802022-12-06 00:53:2244.8507-90.84418214616660Clb=-8.9m/s t=-60.1C h=-1.0% p=-1.0hPa 403.611 MHz Type=DFM17 ser=22036580 Radiosonde
KE0YJJD220365802022-12-06 00:52:3244.8501-90.8598413116947Clb=-9.6m/s t=-60.1C h=-1.0% p=-1.0hPa 403.611 MHz Type=DFM17 ser=22036580 Radiosonde
KE0YJJD220365802022-12-06 00:51:4844.8492-90.87258411917232Clb=-9.2m/s t=-61.1C h=-1.0% p=-1.0hPa 403.611 MHz Type=DFM17 ser=22036580 Radiosonde
KE0YJJD220365802022-12-06 00:51:1744.8491-90.88538711517525Clb=-8.7m/s t=-59.3C h=-1.0% p=-1.0hPa 403.611 MHz Type=DFM17 ser=22036580 Radiosonde
KE0YJJD220365802022-12-06 00:50:4644.8488-90.89898912417845Clb=-9.8m/s t=-60.0C h=-1.0% p=-1.0hPa 403.611 MHz Type=DFM17 ser=22036580 Radiosonde
KE0YJJD220365802022-12-06 00:50:1644.8487-90.91189012218146Clb=-9.3m/s t=-61.5C h=-1.0% p=-1.0hPa 403.611 MHz Type=DFM17 ser=22036580 Radiosonde
kc9nikD220365802022-12-06 00:49:5844.8485-90.92559613018473Clb=-11.6m/s t=-61.7C h=-1.0% p=-1.0hPa 403.610 MHz Type=DFM17 ser=22036580 Radiosonde
KE0YJJD220365802022-12-06 00:49:4444.8485-90.92559613018473Clb=-11.6m/s t=-61.7C h=-1.0% p=-1.0hPa 403.611 MHz Type=DFM17 ser=22036580 Radiosonde
KE0YJJD220365802022-12-06 00:49:3644.8497-91.008829121363Clb=-13.4m/s t=-62.6C h=-1.0% p=-1.0hPa 403.611 MHz Type=DFM17 ser=22036580 Radiosonde
kc9nikD220365802022-12-06 00:49:3444.8492-91.0174868021748Clb=-14.6m/s t=-63.0C h=-1.0% p=-1.0hPa 403.610 MHz Type=DFM17 ser=22036580 Radiosonde
KE0YJJD220365802022-12-06 00:49:3344.8491-91.018838721777Clb=-14.4m/s t=-62.6C h=-1.0% p=-1.0hPa 403.611 MHz Type=DFM17 ser=22036580 Radiosonde
kc9nikD220365802022-12-06 00:49:3244.849-91.0245929422053Clb=-15.0m/s t=-58.1C h=-1.0% p=-1.0hPa 403.610 MHz Type=DFM17 ser=22036580 Radiosonde
kc9nikD220365802022-12-06 00:49:3144.8492-91.0335817022506Clb=-14.4m/s t=-59.1C h=-1.0% p=-1.0hPa 403.610 MHz Type=DFM17 ser=22036580 Radiosonde
KE0YJJD220365802022-12-06 00:49:3044.849-91.0363866722677Clb=-14.4m/s t=-59.1C h=-1.0% p=-1.0hPa 403.611 MHz Type=DFM17 ser=22036580 Radiosonde
kc9nikD220365802022-12-06 00:49:2944.8491-91.0412856722965Clb=-13.5m/s t=-60.2C h=-1.0% p=-1.0hPa 403.610 MHz Type=DFM17 ser=22036580 Radiosonde
KE0YJJD220365802022-12-06 00:49:2844.8495-91.04461056723157Clb=-14.5m/s t=-61.0C h=-1.0% p=-1.0hPa 403.611 MHz Type=DFM17 ser=22036580 Radiosonde
kc9nikD220365802022-12-06 00:49:1544.8508-91.05071159323495Clb=-13.6m/s t=-60.8C h=-1.0% p=-1.0hPa 403.610 MHz Type=DFM17 ser=22036580 Radiosonde
KE0YJJD220365802022-12-06 00:48:5344.8511-91.05261026723593Clb=-16.2m/s t=-61.0C h=-1.0% p=-1.0hPa 403.611 MHz Type=DFM17 ser=22036580 Radiosonde
kc9nikD220365802022-12-06 00:48:2444.8524-91.05761159623826Clb=-14.3m/s t=-60.8C h=-1.0% p=-1.0hPa 403.610 MHz Type=DFM17 ser=22036580 Radiosonde
KE0YJJD220365802022-12-06 00:47:5944.8536-91.06061085924023Clb=-13.6m/s t=-61.2C h=-1.0% p=-1.0hPa 403.611 MHz Type=DFM17 ser=22036580 Radiosonde
kc9nikD220365802022-12-06 00:47:2744.8542-91.06421005424379Clb=-19.2m/s t=-59.8C h=-1.0% p=-1.0hPa 403.610 MHz Type=DFM17 ser=22036580 Radiosonde
KE0YJJD220365802022-12-06 00:47:0144.8548-91.06711077024661Clb=-24.8m/s t=-59.3C h=-1.0% p=-1.0hPa 403.611 MHz Type=DFM17 ser=22036580 Radiosonde
kc9nikD220365802022-12-06 00:46:3244.8553-91.0713917625036Clb=-22.7m/s t=-60.0C h=-1.0% p=-1.0hPa 403.610 MHz Type=DFM17 ser=22036580 Radiosonde
KE0YJJD220365802022-12-06 00:46:0644.8561-91.07481117625284Clb=-18.8m/s t=-60.6C h=-1.0% p=-1.0hPa 403.611 MHz Type=DFM17 ser=22036580 Radiosonde
kc9nikD220365802022-12-06 00:45:3644.8578-91.07811326725679Clb=-23.9m/s t=-59.6C h=-1.0% p=-1.0hPa 403.610 MHz Type=DFM17 ser=22036580 Radiosonde
KE0YJJD220365802022-12-06 00:45:1044.8587-91.08061224626033Clb=-25.1m/s t=-59.1C h=-1.0% p=-1.0hPa 403.611 MHz Type=DFM17 ser=22036580 Radiosonde
kc9nikD220365802022-12-06 00:44:4344.8594-91.08271135426400Clb=-19.6m/s t=-60.7C h=-1.0% p=-1.0hPa 403.610 MHz Type=DFM17 ser=22036580 Radiosonde
KE0YJJD220365802022-12-06 00:44:1844.86-91.08581007226626Clb=-13.8m/s t=-60.5C h=-1.0% p=-1.0hPa 403.611 MHz Type=DFM17 ser=22036580 Radiosonde
kc9nikD220365802022-12-06 00:43:4844.8608-91.09061048726964Clb=-22.6m/s t=-58.2C h=-1.0% p=-1.0hPa 403.610 MHz Type=DFM17 ser=22036580 Radiosonde
KE0YJJD220365802022-12-06 00:43:2144.8613-91.0947999127225Clb=-19.6m/s t=-58.6C h=-1.0% p=-1.0hPa 403.611 MHz Type=DFM17 ser=22036580 Radiosonde
kc9nikD220365802022-12-06 00:42:5144.862-91.09981039127555Clb=-17.4m/s t=-58.9C h=-1.0% p=-1.0hPa 403.610 MHz Type=DFM17 ser=22036580 Radiosonde
KE0YJJD220365802022-12-06 00:42:2144.8628-91.10421107427862Clb=-19.5m/s t=-60.1C h=-1.0% p=-1.0hPa 403.611 MHz Type=DFM17 ser=22036580 Radiosonde
kc9nikD220365802022-12-06 00:41:5044.8637-91.10921137028170Clb=-13.6m/s t=-61.1C h=-1.0% p=-1.0hPa 403.610 MHz Type=DFM17 ser=22036580 Radiosonde
KE0YJJD220365802022-12-06 00:41:2444.8642-91.1126986328379Clb=-13.5m/s t=-60.9C h=-1.0% p=-1.0hPa 403.611 MHz Type=DFM17 ser=22036580 Radiosonde
kc9nikD220365802022-12-06 00:40:5244.8641-91.11771027228623Clb=-11.9m/s t=-60.9C h=-1.0% p=-1.0hPa 403.610 MHz Type=DFM17 ser=22036580 Radiosonde
KE0YJJD220365802022-12-06 00:40:2444.8649-91.12151048128817Clb=-11.2m/s t=-60.5C h=-1.0% p=-1.0hPa 403.611 MHz Type=DFM17 ser=22036580 Radiosonde
kc9nikD220365802022-12-06 00:39:5444.8663-91.12731085629097Clb=-17.0m/s t=-60.9C h=-1.0% p=-1.0hPa 403.610 MHz Type=DFM17 ser=22036580 Radiosonde
KE0YJJD220365802022-12-06 00:39:2844.8665-91.1306829429291Clb=-15.7m/s t=-60.2C h=-1.0% p=-1.0hPa 403.611 MHz Type=DFM17 ser=22036580 Radiosonde
kc9nikD220365802022-12-06 00:38:5944.8658-91.13679112029578Clb=-19.6m/s t=-59.7C h=-1.0% p=-1.0hPa 403.610 MHz Type=DFM17 ser=22036580 Radiosonde
KE0YJJD220365802022-12-06 00:38:3444.8654-91.1418779329829Clb=-15.6m/s t=-59.5C h=-1.0% p=-1.0hPa 403.611 MHz Type=DFM17 ser=22036580 Radiosonde
kc9nikD220365802022-12-06 00:38:0544.8656-91.14879613730140Clb=-18.5m/s t=-59.9C h=-1.0% p=-1.0hPa 403.610 MHz Type=DFM17 ser=22036580 Radiosonde
KE0YJJD220365802022-12-06 00:37:3444.8658-91.15569312630480Clb=-24.4m/s t=-59.3C h=-1.0% p=-1.0hPa 403.611 MHz Type=DFM17 ser=22036580 Radiosonde
kc9nikD220365802022-12-06 00:36:5944.8654-91.16467810930840Clb=3.7m/s t=-59.3C h=-1.0% p=-1.0hPa 403.610 MHz Type=DFM17 ser=22036580 Radiosonde
KE0YJJD220365802022-12-06 00:36:3044.8651-91.16927612430782Clb=4.3m/s t=-59.2C h=-1.0% p=-1.0hPa 403.611 MHz Type=DFM17 ser=22036580 Radiosonde
kc9nikD220365802022-12-06 00:36:0044.8645-91.17757812030665Clb=5.5m/s t=-59.2C h=-1.0% p=-1.0hPa 403.610 MHz Type=DFM17 ser=22036580 Radiosonde
KE0YJJD220365802022-12-06 00:35:4644.8645-91.18399510430568Clb=8.8m/s t=-59.2C h=-1.0% p=-1.0hPa 403.611 MHz Type=DFM17 ser=22036580 Radiosonde
kc9nikD220365802022-12-06 00:35:3544.8644-91.1919797230444Clb=4.5m/s t=-59.9C h=-1.0% p=-1.0hPa 403.610 MHz Type=DFM17 ser=22036580 Radiosonde
KE0YJJD220365802022-12-06 00:35:1744.8643-91.19659511330373Clb=6.5m/s t=-60.0C h=-1.0% p=-1.0hPa 403.611 MHz Type=DFM17 ser=22036580 Radiosonde
kc9nikD220365802022-12-06 00:34:5844.8647-91.20379913930256Clb=9.7m/s t=-59.9C h=-1.0% p=-1.0hPa 403.610 MHz Type=DFM17 ser=22036580 Radiosonde
KE0YJJD220365802022-12-06 00:34:4444.8655-91.21039511730153Clb=6.9m/s t=-60.2C h=-1.0% p=-1.0hPa 403.611 MHz Type=DFM17 ser=22036580 Radiosonde
kc9nikD220365802022-12-06 00:34:2944.866-91.21729110430045Clb=7.4m/s t=-60.1C h=-1.0% p=-1.0hPa 403.610 MHz Type=DFM17 ser=22036580 Radiosonde
KE0YJJD220365802022-12-06 00:34:1544.866-91.22359210229949Clb=3.9m/s t=-59.9C h=-1.0% p=-1.0hPa 403.611 MHz Type=DFM17 ser=22036580 Radiosonde
kc9nikD220365802022-12-06 00:33:5644.8659-91.23018710029846Clb=5.9m/s t=-59.8C h=-1.0% p=-1.0hPa 403.610 MHz Type=DFM17 ser=22036580 Radiosonde
KE0YJJD220365802022-12-06 00:33:4144.8657-91.2358939829756Clb=6.0m/s t=-60.4C h=-1.0% p=-1.0hPa 403.611 MHz Type=DFM17 ser=22036580 Radiosonde
kc9nikD220365802022-12-06 00:33:2444.8652-91.2418946929652Clb=2.5m/s t=-60.3C h=-1.0% p=-1.0hPa 403.610 MHz Type=DFM17 ser=22036580 Radiosonde
KE0YJJD220365802022-12-06 00:33:1144.8648-91.2468739829561Clb=9.3m/s t=-60.7C h=-1.0% p=-1.0hPa 403.611 MHz Type=DFM17 ser=22036580 Radiosonde
KE0YJJD220365802022-12-06 00:32:4444.8838-91.3882887026280Clb=5.7m/s t=-60.3C h=-1.0% p=-1.0hPa 403.611 MHz Type=DFM17 ser=22036580 Radiosonde
kc9nikD220365802022-12-06 00:32:1344.8848-91.39111014426193Clb=6.0m/s t=-60.4C h=-1.0% p=-1.0hPa 403.610 MHz Type=DFM17 ser=22036580 Radiosonde
KE0YJJD220365802022-12-06 00:31:4344.8858-91.39371055626105Clb=2.4m/s t=-60.3C h=-1.0% p=-1.0hPa 403.611 MHz Type=DFM17 ser=22036580 Radiosonde
kc9nikD220365802022-12-06 00:31:1444.887-91.39691136726005Clb=6.5m/s t=-60.7C h=-1.0% p=-1.0hPa 403.610 MHz Type=DFM17 ser=22036580 Radiosonde
KE0YJJD220365802022-12-06 00:30:4544.8881-91.39971349425921Clb=5.4m/s t=-61.9C h=-1.0% p=-1.0hPa 403.611 MHz Type=DFM17 ser=22036580 Radiosonde
kc9nikD220365802022-12-06 00:30:1544.8896-91.40311426925834Clb=3.6m/s t=-62.9C h=-1.0% p=-1.0hPa 403.610 MHz Type=DFM17 ser=22036580 Radiosonde
KE0YJJD220365802022-12-06 00:29:4744.8913-91.40621227425746Clb=7.8m/s t=-62.8C h=-1.0% p=-1.0hPa 403.611 MHz Type=DFM17 ser=22036580 Radiosonde
kc9nikD220365802022-12-06 00:29:1844.8932-91.41011198325645Clb=6.7m/s t=-62.7C h=-1.0% p=-1.0hPa 403.610 MHz Type=DFM17 ser=22036580 Radiosonde
KE0YJJD220365802022-12-06 00:28:5044.8947-91.41341278725562Clb=4.7m/s t=-62.7C h=-1.0% p=-1.0hPa 403.611 MHz Type=DFM17 ser=22036580 Radiosonde
kc9nikD220365802022-12-06 00:28:2144.8962-91.41781099325463Clb=7.1m/s t=-62.2C h=-1.0% p=-1.0hPa 403.610 MHz Type=DFM17 ser=22036580 Radiosonde
KE0YJJD220365802022-12-06 00:27:5144.8973-91.42211129425376Clb=5.7m/s t=-61.8C h=-1.0% p=-1.0hPa 403.611 MHz Type=DFM17 ser=22036580 Radiosonde
kc9nikD220365802022-12-06 00:27:2144.8982-91.4266975725289Clb=7.3m/s t=-61.8C h=-1.0% p=-1.0hPa 403.610 MHz Type=DFM17 ser=22036580 Radiosonde
KE0YJJD220365802022-12-06 00:26:5144.8985-91.43041048025215Clb=5.0m/s t=-61.6C h=-1.0% p=-1.0hPa 403.611 MHz Type=DFM17 ser=22036580 Radiosonde
kc9nikD220365802022-12-06 00:26:2244.899-91.4349997025122Clb=7.0m/s t=-61.1C h=-1.0% p=-1.0hPa 403.610 MHz Type=DFM17 ser=22036580 Radiosonde
KE0YJJD220365802022-12-06 00:25:5344.8995-91.43831136725045Clb=5.7m/s t=-60.6C h=-1.0% p=-1.0hPa 403.611 MHz Type=DFM17 ser=22036580 Radiosonde
kc9nikD220365802022-12-06 00:25:2044.9003-91.44231028024948Clb=3.0m/s t=-60.7C h=-1.0% p=-1.0hPa 403.610 MHz Type=DFM17 ser=22036580 Radiosonde
KE0YJJD220365802022-12-06 00:24:5344.9013-91.44561048324873Clb=5.6m/s t=-60.9C h=-1.0% p=-1.0hPa 403.611 MHz Type=DFM17 ser=22036580 Radiosonde
kc9nikD220365802022-12-06 00:24:2044.9027-91.45021219824771Clb=2.9m/s t=-60.9C h=-1.0% p=-1.0hPa 403.610 MHz Type=DFM17 ser=22036580 Radiosonde
KE0YJJD220365802022-12-06 00:23:5344.9036-91.45341188124699Clb=6.0m/s t=-61.3C h=-1.0% p=-1.0hPa 403.611 MHz Type=DFM17 ser=22036580 Radiosonde
kc9nikD220365802022-12-06 00:23:2244.9048-91.4573935024596Clb=5.5m/s t=-61.4C h=-1.0% p=-1.0hPa 403.610 MHz Type=DFM17 ser=22036580 Radiosonde
KE0YJJD220365802022-12-06 00:22:5444.9054-91.46031055924506Clb=7.6m/s t=-60.9C h=-1.0% p=-1.0hPa 403.611 MHz Type=DFM17 ser=22036580 Radiosonde
kc9nikD220365802022-12-06 00:22:2144.9058-91.4635985224410Clb=5.9m/s t=-60.3C h=-1.0% p=-1.0hPa 403.610 MHz Type=DFM17 ser=22036580 Radiosonde
KE0YJJD220365802022-12-06 00:21:5544.9058-91.4669853724303Clb=4.2m/s t=-60.5C h=-1.0% p=-1.0hPa 403.611 MHz Type=DFM17 ser=22036580 Radiosonde
kc9nikD220365802022-12-06 00:21:2544.9057-91.46921085624229Clb=6.6m/s t=-61.4C h=-1.0% p=-1.0hPa 403.610 MHz Type=DFM17 ser=22036580 Radiosonde
KE0YJJD220365802022-12-06 00:20:5944.906-91.47151185924147Clb=4.8m/s t=-61.1C h=-1.0% p=-1.0hPa 403.611 MHz Type=DFM17 ser=22036580 Radiosonde
kc9nikD220365802022-12-06 00:20:2644.9067-91.47431067624054Clb=6.6m/s t=-60.9C h=-1.0% p=-1.0hPa 403.610 MHz Type=DFM17 ser=22036580 Radiosonde
KE0YJJD220365802022-12-06 00:19:5844.9076-91.47691228123975Clb=5.8m/s t=-60.5C h=-1.0% p=-1.0hPa 403.611 MHz Type=DFM17 ser=22036580 Radiosonde
kc9nikD220365802022-12-06 00:19:2744.9091-91.48071088023869Clb=6.6m/s t=-60.6C h=-1.0% p=-1.0hPa 403.610 MHz Type=DFM17 ser=22036580 Radiosonde
KE0YJJD220365802022-12-06 00:19:0244.9105-91.48451047423787Clb=5.1m/s t=-60.7C h=-1.0% p=-1.0hPa 403.611 MHz Type=DFM17 ser=22036580 Radiosonde
kc9nikD220365802022-12-06 00:18:3244.9118-91.48871249123703Clb=6.9m/s t=-60.2C h=-1.0% p=-1.0hPa 403.610 MHz Type=DFM17 ser=22036580 Radiosonde
KE0YJJD220365802022-12-06 00:18:0644.913-91.493311410623619Clb=3.7m/s t=-60.1C h=-1.0% p=-1.0hPa 403.611 MHz Type=DFM17 ser=22036580 Radiosonde
kc9nikD220365802022-12-06 00:17:3444.914-91.4983998023529Clb=4.2m/s t=-60.0C h=-1.0% p=-1.0hPa 403.610 MHz Type=DFM17 ser=22036580 Radiosonde
KE0YJJD220365802022-12-06 00:17:0544.9149-91.50281148723445Clb=3.5m/s t=-59.7C h=-1.0% p=-1.0hPa 403.611 MHz Type=DFM17 ser=22036580 Radiosonde
kc9nikD220365802022-12-06 00:16:3544.9155-91.5074968023355Clb=5.6m/s t=-60.3C h=-1.0% p=-1.0hPa 403.610 MHz Type=DFM17 ser=22036580 Radiosonde
KE0YJJD220365802022-12-06 00:16:0744.9161-91.5118968323271Clb=6.7m/s t=-60.0C h=-1.0% p=-1.0hPa 403.611 MHz Type=DFM17 ser=22036580 Radiosonde
kc9nikD220365802022-12-06 00:15:4944.9166-91.5169997823178Clb=6.8m/s t=-60.0C h=-1.0% p=-1.0hPa 403.610 MHz Type=DFM17 ser=22036580 Radiosonde
KE0YJJD220365802022-12-06 00:15:3844.9172-91.52111028323093Clb=7.0m/s t=-59.8C h=-1.0% p=-1.0hPa 403.611 MHz Type=DFM17 ser=22036580 Radiosonde
kc9nikD220365802022-12-06 00:15:2244.9181-91.5266969322983Clb=6.8m/s t=-59.9C h=-1.0% p=-1.0hPa 403.610 MHz Type=DFM17 ser=22036580 Radiosonde
KE0YJJD220365802022-12-06 00:15:0544.9185-91.53051048922907Clb=6.6m/s t=-60.3C h=-1.0% p=-1.0hPa 403.611 MHz Type=DFM17 ser=22036580 Radiosonde
kc9nikD220365802022-12-06 00:14:4744.9188-91.535807022805Clb=7.1m/s t=-60.3C h=-1.0% p=-1.0hPa 403.610 MHz Type=DFM17 ser=22036580 Radiosonde
KE0YJJD220365802022-12-06 00:14:4344.9187-91.5382876722729Clb=6.7m/s t=-60.0C h=-1.0% p=-1.0hPa 403.611 MHz Type=DFM17 ser=22036580 Radiosonde
kc9nikD220365802022-12-06 00:14:3744.9183-91.5423896122628Clb=7.0m/s t=-60.7C h=-1.0% p=-1.0hPa 403.610 MHz Type=DFM17 ser=22036580 Radiosonde
KE0YJJD220365802022-12-06 00:14:2544.9179-91.5457787222542Clb=4.5m/s t=-60.9C h=-1.0% p=-1.0hPa 403.611 MHz Type=DFM17 ser=22036580 Radiosonde
kc9nikD220365802022-12-06 00:14:0744.9179-91.5504869822449Clb=5.3m/s t=-61.0C h=-1.0% p=-1.0hPa 403.610 MHz Type=DFM17 ser=22036580 Radiosonde
KE0YJJD220365802022-12-06 00:13:5944.9178-91.5554958522360Clb=7.0m/s t=-60.6C h=-1.0% p=-1.0hPa 403.611 MHz Type=DFM17 ser=22036580 Radiosonde
kc9nikD220365802022-12-06 00:13:5444.9175-91.5613789822257Clb=6.7m/s t=-60.1C h=-1.0% p=-1.0hPa 403.610 MHz Type=DFM17 ser=22036580 Radiosonde
KE0YJJD220365802022-12-06 00:13:5044.9168-91.5659759622170Clb=7.6m/s t=-60.0C h=-1.0% p=-1.0hPa 403.611 MHz Type=DFM17 ser=22036580 Radiosonde
kc9nikD220365802022-12-06 00:13:4444.916-91.5708869422088Clb=6.8m/s t=-61.3C h=-1.0% p=-1.0hPa 403.610 MHz Type=DFM17 ser=22036580 Radiosonde
KE0YJJD220365802022-12-06 00:13:4344.9153-91.57588510622004Clb=5.8m/s t=-62.6C h=-1.0% p=-1.0hPa 403.611 MHz Type=DFM17 ser=22036580 Radiosonde
kc9nikD220365802022-12-06 00:13:4044.9145-91.5813757821913Clb=6.9m/s t=-64.6C h=-1.0% p=-1.0hPa 403.610 MHz Type=DFM17 ser=22036580 Radiosonde
KE0YJJD220365802022-12-06 00:13:3944.9139-91.5861868321820Clb=6.9m/s t=-64.3C h=-1.0% p=-1.0hPa 403.611 MHz Type=DFM17 ser=22036580 Radiosonde
kc9nikD220365802022-12-06 00:13:3744.9134-91.5903649121744Clb=3.5m/s t=-63.8C h=-1.0% p=-1.0hPa 403.610 MHz Type=DFM17 ser=22036580 Radiosonde
KE0YJJD220365802022-12-06 00:13:3644.9131-91.5946798521667Clb=4.9m/s t=-63.2C h=-1.0% p=-1.0hPa 403.611 MHz Type=DFM17 ser=22036580 Radiosonde
kc9nikD220365802022-12-06 00:13:3444.9128-91.6002898921571Clb=6.8m/s t=-62.6C h=-1.0% p=-1.0hPa 403.610 MHz Type=DFM17 ser=22036580 Radiosonde
KE0YJJD220365802022-12-06 00:13:1844.9123-91.606939821477Clb=4.8m/s t=-62.7C h=-1.0% p=-1.0hPa 403.611 MHz Type=DFM17 ser=22036580 Radiosonde
kc9nikD220365802022-12-06 00:13:0144.912-91.6111798921396Clb=4.0m/s t=-62.1C h=-1.0% p=-1.0hPa 403.610 MHz Type=DFM17 ser=22036580 Radiosonde
KE0YJJD220365802022-12-06 00:13:0044.9117-91.61548610021323Clb=7.0m/s t=-61.7C h=-1.0% p=-1.0hPa 403.611 MHz Type=DFM17 ser=22036580 Radiosonde
kc9nikD220365802022-12-06 00:12:5944.9112-91.6205848721228Clb=7.8m/s t=-62.8C h=-1.0% p=-1.0hPa 403.610 MHz Type=DFM17 ser=22036580 Radiosonde
KE0YJJD220365802022-12-06 00:12:5844.9101-91.6271776921084Clb=6.2m/s t=-62.3C h=-1.0% p=-1.0hPa 403.612 MHz Type=DFM17 ser=22036580 Radiosonde
kc9nikD220365802022-12-06 00:12:5744.9095-91.629748721040Clb=6.2m/s t=-62.0C h=-1.0% p=-1.0hPa 403.610 MHz Type=DFM17 ser=22036580 Radiosonde
KE0YJJD220365802022-12-06 00:12:5644.9084-91.6327598520954Clb=7.0m/s t=-61.2C h=-1.0% p=-1.0hPa 403.611 MHz Type=DFM17 ser=22036580 Radiosonde
kc9nikD220365802022-12-06 00:12:5544.9069-91.6375627620851Clb=7.1m/s t=-60.4C h=-1.0% p=-1.0hPa 403.610 MHz Type=DFM17 ser=22036580 Radiosonde
KE0YJJD220365802022-12-06 00:12:4444.9055-91.64166710420760Clb=4.5m/s t=-60.5C h=-1.0% p=-1.0hPa 403.611 MHz Type=DFM17 ser=22036580 Radiosonde
kc9nikD220365802022-12-06 00:12:1644.9045-91.6458708320663Clb=6.9m/s t=-60.2C h=-1.0% p=-1.0hPa 403.610 MHz Type=DFM17 ser=22036580 Radiosonde
KE0YJJD220365802022-12-06 00:11:4844.9039-91.6499849320568Clb=8.1m/s t=-59.7C h=-1.0% p=-1.0hPa 403.611 MHz Type=DFM17 ser=22036580 Radiosonde
kc9nikD220365802022-12-06 00:11:2044.9038-91.6546888720459Clb=7.7m/s t=-59.8C h=-1.0% p=-1.0hPa 403.610 MHz Type=DFM17 ser=22036580 Radiosonde
KE0YJJD220365802022-12-06 00:10:5244.9042-91.6589957420358Clb=4.8m/s t=-59.5C h=-1.0% p=-1.0hPa 403.611 MHz Type=DFM17 ser=22036580 Radiosonde
kc9nikD220365802022-12-06 00:10:2144.9049-91.66341038020270Clb=6.6m/s t=-58.8C h=-1.0% p=-1.0hPa 403.610 MHz Type=DFM17 ser=22036580 Radiosonde
KE0YJJD220365802022-12-06 00:09:5144.9055-91.668988720188Clb=5.3m/s t=-58.4C h=-1.0% p=-1.0hPa 403.611 MHz Type=DFM17 ser=22036580 Radiosonde
kc9nikD220365802022-12-06 00:09:2344.9062-91.67339910220101Clb=6.2m/s t=-57.8C h=-1.0% p=-1.0hPa 403.610 MHz Type=DFM17 ser=22036580 Radiosonde
KE0YJJD220365802022-12-06 00:08:5444.9069-91.67849711320022Clb=6.6m/s t=-57.6C h=-1.0% p=-1.0hPa 403.611 MHz Type=DFM17 ser=22036580 Radiosonde
kc9nikD220365802022-12-06 00:08:2644.9078-91.6841999119936Clb=5.8m/s t=-58.0C h=-1.0% p=-1.0hPa 403.610 MHz Type=DFM17 ser=22036580 Radiosonde
KE0YJJD220365802022-12-06 00:07:5744.9087-91.689311010719854Clb=5.3m/s t=-58.5C h=-1.0% p=-1.0hPa 403.611 MHz Type=DFM17 ser=22036580 Radiosonde
kc9nikD220365802022-12-06 00:07:2844.9099-91.694711110619765Clb=4.6m/s t=-58.3C h=-1.0% p=-1.0hPa 403.610 MHz Type=DFM17 ser=22036580 Radiosonde
KE0YJJD220365802022-12-06 00:07:0244.911-91.69981049619684Clb=4.8m/s t=-58.7C h=-1.0% p=-1.0hPa 403.611 MHz Type=DFM17 ser=22036580 Radiosonde
kc9nikD220365802022-12-06 00:06:3444.912-91.70551009619592Clb=4.3m/s t=-59.0C h=-1.0% p=-1.0hPa 403.610 MHz Type=DFM17 ser=22036580 Radiosonde
KE0YJJD220365802022-12-06 00:06:0944.9128-91.711069619515Clb=4.5m/s t=-59.9C h=-1.0% p=-1.0hPa 403.611 MHz Type=DFM17 ser=22036580 Radiosonde
kc9nikD220365802022-12-06 00:05:3644.9136-91.71579911919423Clb=4.9m/s t=-60.1C h=-1.0% p=-1.0hPa 403.610 MHz Type=DFM17 ser=22036580 Radiosonde
KE0YJJD220365802022-12-06 00:05:1044.9144-91.721610112019336Clb=6.9m/s t=-61.0C h=-1.0% p=-1.0hPa 403.611 MHz Type=DFM17 ser=22036580 Radiosonde
kc9nikD220365802022-12-06 00:04:4244.915-91.72879711319241Clb=6.8m/s t=-61.9C h=-1.0% p=-1.0hPa 403.610 MHz Type=DFM17 ser=22036580 Radiosonde
KE0YJJD220365802022-12-06 00:04:1644.9156-91.7339979119161Clb=6.2m/s t=-62.2C h=-1.0% p=-1.0hPa 403.611 MHz Type=DFM17 ser=22036580 Radiosonde
kc9nikD220365802022-12-06 00:03:5544.9162-91.739610210719071Clb=5.0m/s t=-62.5C h=-1.0% p=-1.0hPa 403.610 MHz Type=DFM17 ser=22036580 Radiosonde
KE0YJJD220365802022-12-06 00:03:4044.9168-91.74569812018981Clb=4.3m/s t=-62.4C h=-1.0% p=-1.0hPa 403.611 MHz Type=DFM17 ser=22036580 Radiosonde
kc9nikD220365802022-12-06 00:03:2744.9171-91.75159411318900Clb=5.9m/s t=-62.0C h=-1.0% p=-1.0hPa 403.610 MHz Type=DFM17 ser=22036580 Radiosonde
KE0YJJD220365802022-12-06 00:03:1244.9176-91.75789012418818Clb=6.2m/s t=-61.8C h=-1.0% p=-1.0hPa 403.611 MHz Type=DFM17 ser=22036580 Radiosonde
kc9nikD220365802022-12-06 00:02:5344.9179-91.76529012618729Clb=4.0m/s t=-61.4C h=-1.0% p=-1.0hPa 403.610 MHz Type=DFM17 ser=22036580 Radiosonde
KE0YJJD220365802022-12-06 00:02:3844.9182-91.77169613118657Clb=3.7m/s t=-61.6C h=-1.0% p=-1.0hPa 403.611 MHz Type=DFM17 ser=22036580 Radiosonde
kc9nikD220365802022-12-06 00:02:2244.9185-91.7799014318577Clb=5.6m/s t=-62.0C h=-1.0% p=-1.0hPa 403.610 MHz Type=DFM17 ser=22036580 Radiosonde
KE0YJJD220365802022-12-06 00:02:0844.9189-91.78569112018505Clb=6.5m/s t=-62.6C h=-1.0% p=-1.0hPa 403.611 MHz Type=DFM17 ser=22036580 Radiosonde
kc9nikD220365802022-12-06 00:01:5144.9187-91.79318711718419Clb=4.8m/s t=-62.3C h=-1.0% p=-1.0hPa 403.610 MHz Type=DFM17 ser=22036580 Radiosonde
KE0YJJD220365802022-12-06 00:01:3644.9183-91.79927913018354Clb=4.9m/s t=-62.4C h=-1.0% p=-1.0hPa 403.611 MHz Type=DFM17 ser=22036580 Radiosonde
kc9nikD220365802022-12-06 00:01:2244.9179-91.80668512218275Clb=5.9m/s t=-62.4C h=-1.0% p=-1.0hPa 403.610 MHz Type=DFM17 ser=22036580 Radiosonde
KE0YJJD220365802022-12-06 00:01:0544.9176-91.81319011918205Clb=5.1m/s t=-62.1C h=-1.0% p=-1.0hPa 403.611 MHz Type=DFM17 ser=22036580 Radiosonde
kc9nikD220365802022-12-06 00:00:5544.9174-91.83278811117973Clb=5.5m/s t=-60.8C h=-1.0% p=-1.0hPa 403.610 MHz Type=DFM17 ser=22036580 Radiosonde
KE0YJJD220365802022-12-06 00:00:5244.9175-91.83919012217897Clb=6.0m/s t=-60.3C h=-1.0% p=-1.0hPa 403.611 MHz Type=DFM17 ser=22036580 Radiosonde
kc9nikD220365802022-12-06 00:00:4944.9177-91.84598811917811Clb=5.9m/s t=-60.2C h=-1.0% p=-1.0hPa 403.610 MHz Type=DFM17 ser=22036580 Radiosonde
KE0YJJD220365802022-12-06 00:00:4544.9178-91.8528911317730Clb=6.1m/s t=-60.0C h=-1.0% p=-1.0hPa 403.611 MHz Type=DFM17 ser=22036580 Radiosonde
kc9nikD220365802022-12-06 00:00:4244.9177-91.85889511517641Clb=3.8m/s t=-59.7C h=-1.0% p=-1.0hPa 403.610 MHz Type=DFM17 ser=22036580 Radiosonde
KE0YJJD220365802022-12-06 00:00:3744.9176-91.8658810717556Clb=4.8m/s t=-59.4C h=-1.0% p=-1.0hPa 403.611 MHz Type=DFM17 ser=22036580 Radiosonde
kc9nikD220365802022-12-06 00:00:3444.9176-91.87138411317461Clb=4.4m/s t=-59.3C h=-1.0% p=-1.0hPa 403.610 MHz Type=DFM17 ser=22036580 Radiosonde
KE0YJJD220365802022-12-06 00:00:3244.918-91.877310210917370Clb=5.3m/s t=-59.5C h=-1.0% p=-1.0hPa 403.611 MHz Type=DFM17 ser=22036580 Radiosonde
kc9nikD220365802022-12-06 00:00:3144.9185-91.88399512017272Clb=6.6m/s t=-60.2C h=-1.0% p=-1.0hPa 403.610 MHz Type=DFM17 ser=22036580 Radiosonde
KE0YJJD220365802022-12-06 00:00:2744.9188-91.89028911717182Clb=6.9m/s t=-60.4C h=-1.0% p=-1.0hPa 403.611 MHz Type=DFM17 ser=22036580 Radiosonde
kc9nikD220365802022-12-06 00:00:0444.9186-91.89678711317090Clb=5.3m/s t=-60.5C h=-1.0% p=-1.0hPa 403.610 MHz Type=DFM17 ser=22036580 Radiosonde
KE0YJJD220365802022-12-05 23:59:3744.9185-91.90258911917005Clb=5.2m/s t=-60.3C h=-1.0% p=-1.0hPa 403.611 MHz Type=DFM17 ser=22036580 Radiosonde
kc9nikD220365802022-12-05 23:59:0944.9183-91.90919413016917Clb=5.6m/s t=-60.3C h=-1.0% p=-1.0hPa 403.610 MHz Type=DFM17 ser=22036580 Radiosonde
KE0YJJD220365802022-12-05 23:58:4344.9183-91.91568512216841Clb=3.9m/s t=-60.1C h=-1.0% p=-1.0hPa 403.611 MHz Type=DFM17 ser=22036580 Radiosonde
kc9nikD220365802022-12-05 23:58:1544.9184-91.92338412416759Clb=5.8m/s t=-60.1C h=-1.0% p=-1.0hPa 403.610 MHz Type=DFM17 ser=22036580 Radiosonde
KE0YJJD220365802022-12-05 23:57:4844.918-91.93128913316680Clb=4.9m/s t=-59.9C h=-1.0% p=-1.0hPa 403.611 MHz Type=DFM17 ser=22036580 Radiosonde
kc9nikD220365802022-12-05 23:57:2044.9174-91.93897814816613Clb=3.6m/s t=-60.7C h=-1.0% p=-1.0hPa 403.610 MHz Type=DFM17 ser=22036580 Radiosonde
KE0YJJD220365802022-12-05 23:56:5144.9166-91.94658014316544Clb=4.2m/s t=-60.6C h=-1.0% p=-1.0hPa 403.611 MHz Type=DFM17 ser=22036580 Radiosonde
kc9nikD220365802022-12-05 23:56:2444.9159-91.95467913916470Clb=3.0m/s t=-60.5C h=-1.0% p=-1.0hPa 403.610 MHz Type=DFM17 ser=22036580 Radiosonde
KE0YJJD220365802022-12-05 23:56:0244.9152-91.96187913116395Clb=3.8m/s t=-60.2C h=-1.0% p=-1.0hPa 403.611 MHz Type=DFM17 ser=22036580 Radiosonde
kc9nikD220365802022-12-05 23:56:0144.9143-91.96958311916313Clb=4.7m/s t=-59.7C h=-1.0% p=-1.0hPa 403.610 MHz Type=DFM17 ser=22036580 Radiosonde
KE0YJJD220365802022-12-05 23:56:0044.9139-91.97658813716235Clb=5.8m/s t=-59.1C h=-1.0% p=-1.0hPa 403.611 MHz Type=DFM17 ser=22036580 Radiosonde
kc9nikD220365802022-12-05 23:55:5944.9138-91.98378613716157Clb=4.5m/s t=-59.0C h=-1.0% p=-1.0hPa 403.610 MHz Type=DFM17 ser=22036580 Radiosonde
KE0YJJD220365802022-12-05 23:55:4944.9137-91.99049312416080Clb=5.0m/s t=-59.1C h=-1.0% p=-1.0hPa 403.611 MHz Type=DFM17 ser=22036580 Radiosonde
kc9nikD220365802022-12-05 23:55:2444.9135-91.9988312615987Clb=6.0m/s t=-59.3C h=-1.0% p=-1.0hPa 403.610 MHz Type=DFM17 ser=22036580 Radiosonde
KE0YJJD220365802022-12-05 23:54:5944.9133-92.00478712615908Clb=6.3m/s t=-59.2C h=-1.0% p=-1.0hPa 403.611 MHz Type=DFM17 ser=22036580 Radiosonde
kc9nikD220365802022-12-05 23:54:3544.9131-92.01158813115829Clb=5.0m/s t=-59.1C h=-1.0% p=-1.0hPa 403.610 MHz Type=DFM17 ser=22036580 Radiosonde
KE0YJJD220365802022-12-05 23:54:0944.9128-92.01818612815746Clb=6.6m/s t=-59.1C h=-1.0% p=-1.0hPa 403.611 MHz Type=DFM17 ser=22036580 Radiosonde
kc9nikD220365802022-12-05 23:53:4444.9127-92.02589013015657Clb=4.9m/s t=-58.9C h=-1.0% p=-1.0hPa 403.610 MHz Type=DFM17 ser=22036580 Radiosonde
KE0YJJD220365802022-12-05 23:53:1944.9128-92.03299313015576Clb=5.5m/s t=-58.9C h=-1.0% p=-1.0hPa 403.611 MHz Type=DFM17 ser=22036580 Radiosonde
kc9nikD220365802022-12-05 23:52:5444.913-92.04079213515494Clb=5.8m/s t=-59.2C h=-1.0% p=-1.0hPa 403.610 MHz Type=DFM17 ser=22036580 Radiosonde
KE0YJJD220365802022-12-05 23:52:2844.9131-92.04749414815419Clb=4.3m/s t=-59.0C h=-1.0% p=-1.0hPa 403.611 MHz Type=DFM17 ser=22036580 Radiosonde
kc9nikD220365802022-12-05 23:52:0144.9134-92.05579314815334Clb=4.1m/s t=-59.0C h=-1.0% p=-1.0hPa 403.610 MHz Type=DFM17 ser=22036580 Radiosonde
KE0YJJD220365802022-12-05 23:51:4644.9139-92.06399214415247Clb=6.3m/s t=-59.4C h=-1.0% p=-1.0hPa 403.611 MHz Type=DFM17 ser=22036580 Radiosonde
kc9nikD220365802022-12-05 23:51:3044.9146-92.07219816315168Clb=7.5m/s t=-58.8C h=-1.0% p=-1.0hPa 403.610 MHz Type=DFM17 ser=22036580 Radiosonde
KE0YJJD220365802022-12-05 23:51:1744.9153-92.08079716715076Clb=8.6m/s t=-58.0C h=-1.0% p=-1.0hPa 403.611 MHz Type=DFM17 ser=22036580 Radiosonde
kc9nikD220365802022-12-05 23:51:1644.9159-92.09029718314979Clb=5.2m/s t=-57.4C h=-1.0% p=-1.0hPa 403.610 MHz Type=DFM17 ser=22036580 Radiosonde
KE0YJJD220365802022-12-05 23:51:1544.9167-92.09949518014895Clb=5.6m/s t=-57.9C h=-1.0% p=-1.0hPa 403.611 MHz Type=DFM17 ser=22036580 Radiosonde
kc9nikD220365802022-12-05 23:51:1444.9172-92.10959218014814Clb=5.7m/s t=-57.7C h=-1.0% p=-1.0hPa 403.610 MHz Type=DFM17 ser=22036580 Radiosonde
kc9nikD220365802022-12-05 23:51:0244.9176-92.12828816914662Clb=6.0m/s t=-58.5C h=-1.0% p=-1.0hPa 403.610 MHz Type=DFM17 ser=22036580 Radiosonde
KE0YJJD220365802022-12-05 23:50:4144.9175-92.13689115614592Clb=5.9m/s t=-58.6C h=-1.0% p=-1.0hPa 403.611 MHz Type=DFM17 ser=22036580 Radiosonde
kc9nikD220365802022-12-05 23:50:1544.9177-92.14689115914512Clb=3.3m/s t=-58.5C h=-1.0% p=-1.0hPa 403.610 MHz Type=DFM17 ser=22036580 Radiosonde
KE0YJJD220365802022-12-05 23:49:5144.9179-92.15598917014437Clb=5.2m/s t=-58.4C h=-1.0% p=-1.0hPa 403.611 MHz Type=DFM17 ser=22036580 Radiosonde
kc9nikD220365802022-12-05 23:49:2644.9182-92.16519117814364Clb=3.7m/s t=-58.2C h=-1.0% p=-1.0hPa 403.610 MHz Type=DFM17 ser=22036580 Radiosonde
KE0YJJD220365802022-12-05 23:49:0144.9186-92.17429017014292Clb=4.7m/s t=-58.0C h=-1.0% p=-1.0hPa 403.611 MHz Type=DFM17 ser=22036580 Radiosonde
kc9nikD220365802022-12-05 23:48:3544.9189-92.18379417014213Clb=5.8m/s t=-57.7C h=-1.0% p=-1.0hPa 403.610 MHz Type=DFM17 ser=22036580 Radiosonde
KE0YJJD220365802022-12-05 23:48:1144.9192-92.19289418014142Clb=5.2m/s t=-57.7C h=-1.0% p=-1.0hPa 403.611 MHz Type=DFM17 ser=22036580 Radiosonde
kc9nikD220365802022-12-05 23:47:5244.9195-92.20369317814063Clb=4.9m/s t=-57.7C h=-1.0% p=-1.0hPa 403.610 MHz Type=DFM17 ser=22036580 Radiosonde
KE0YJJD220365802022-12-05 23:47:3744.9197-92.21249318513999Clb=4.2m/s t=-58.3C h=-1.0% p=-1.0hPa 403.611 MHz Type=DFM17 ser=22036580 Radiosonde
kc9nikD220365802022-12-05 23:47:2144.9201-92.22299619313927Clb=3.9m/s t=-57.9C h=-1.0% p=-1.0hPa 403.610 MHz Type=DFM17 ser=22036580 Radiosonde
KE0YJJD220365802022-12-05 23:47:0644.9205-92.23279119313852Clb=5.2m/s t=-58.0C h=-1.0% p=-1.0hPa 403.611 MHz Type=DFM17 ser=22036580 Radiosonde
kc9nikD220365802022-12-05 23:46:5044.9207-92.24398917413772Clb=3.2m/s t=-58.3C h=-1.0% p=-1.0hPa 403.610 MHz Type=DFM17 ser=22036580 Radiosonde
KE0YJJD220365802022-12-05 23:46:4944.9207-92.25338717413703Clb=4.2m/s t=-58.1C h=-1.0% p=-1.0hPa 403.611 MHz Type=DFM17 ser=22036580 Radiosonde
KE0YJJD220365802022-12-05 23:46:4844.9201-92.27248719613567Clb=6.7m/s t=-57.8C h=-1.0% p=-1.0hPa 403.611 MHz Type=DFM17 ser=22036580 Radiosonde
kc9nikD220365802022-12-05 23:46:4144.9197-92.2838718513487Clb=3.6m/s t=-57.3C h=-1.0% p=-1.0hPa 403.610 MHz Type=DFM17 ser=22036580 Radiosonde
KE0YJJD220365802022-12-05 23:46:2244.9194-92.29328418313416Clb=3.9m/s t=-57.1C h=-1.0% p=-1.0hPa 403.611 MHz Type=DFM17 ser=22036580 Radiosonde
kc9nikD220365802022-12-05 23:45:5744.9188-92.3048318913338Clb=3.9m/s t=-57.1C h=-1.0% p=-1.0hPa 403.610 MHz Type=DFM17 ser=22036580 Radiosonde
KE0YJJD220365802022-12-05 23:45:3344.918-92.31438220013267Clb=4.1m/s t=-57.2C h=-1.0% p=-1.0hPa 403.611 MHz Type=DFM17 ser=22036580 Radiosonde
kc9nikD220365802022-12-05 23:45:0844.917-92.32548520013191Clb=4.1m/s t=-57.9C h=-1.0% p=-1.0hPa 403.610 MHz Type=DFM17 ser=22036580 Radiosonde
KE0YJJD220365802022-12-05 23:44:4444.9162-92.33588620413116Clb=4.1m/s t=-57.8C h=-1.0% p=-1.0hPa 403.611 MHz Type=DFM17 ser=22036580 Radiosonde
kc9nikD220365802022-12-05 23:44:2144.9156-92.34778620613033Clb=5.4m/s t=-57.7C h=-1.0% p=-1.0hPa 403.610 MHz Type=DFM17 ser=22036580 Radiosonde
KE0YJJD220365802022-12-05 23:44:0044.9153-92.3588519812954Clb=4.0m/s t=-57.7C h=-1.0% p=-1.0hPa 403.611 MHz Type=DFM17 ser=22036580 Radiosonde
kc9nikD220365802022-12-05 23:43:4444.915-92.36838719812877Clb=6.0m/s t=-58.1C h=-1.0% p=-1.0hPa 403.610 MHz Type=DFM17 ser=22036580 Radiosonde
KE0YJJD220365802022-12-05 23:43:2844.9146-92.37898420612799Clb=4.7m/s t=-58.1C h=-1.0% p=-1.0hPa 403.611 MHz Type=DFM17 ser=22036580 Radiosonde
kc9nikD220365802022-12-05 23:43:1344.9139-92.39028420012719Clb=6.2m/s t=-57.6C h=-1.0% p=-1.0hPa 403.610 MHz Type=DFM17 ser=22036580 Radiosonde
KE0YJJD220365802022-12-05 23:42:5744.9132-92.40148619812639Clb=4.5m/s t=-57.4C h=-1.0% p=-1.0hPa 403.611 MHz Type=DFM17 ser=22036580 Radiosonde
kc9nikD220365802022-12-05 23:42:4244.9127-92.41178718912564Clb=4.5m/s t=-57.6C h=-1.0% p=-1.0hPa 403.610 MHz Type=DFM17 ser=22036580 Radiosonde
KE0YJJD220365802022-12-05 23:42:2944.9123-92.42258718912488Clb=4.4m/s t=-57.2C h=-1.0% p=-1.0hPa 403.611 MHz Type=DFM17 ser=22036580 Radiosonde
kc9nikD220365802022-12-05 23:42:2844.9118-92.43278620412417Clb=5.2m/s t=-56.6C h=-1.0% p=-1.0hPa 403.610 MHz Type=DFM17 ser=22036580 Radiosonde
KE0YJJD220365802022-12-05 23:42:2744.9113-92.44458519412332Clb=3.5m/s t=-56.3C h=-1.0% p=-1.0hPa 403.611 MHz Type=DFM17 ser=22036580 Radiosonde
kc9nikD220365802022-12-05 23:42:2144.9104-92.45658319312252Clb=4.7m/s t=-57.4C h=-1.0% p=-1.0hPa 403.610 MHz Type=DFM17 ser=22036580 Radiosonde
kc9nikD220365802022-12-05 23:41:4044.9092-92.47618719812125Clb=5.4m/s t=-57.1C h=-1.0% p=-1.0hPa 403.610 MHz Type=DFM17 ser=22036580 Radiosonde
kc9nikD220365802022-12-05 23:40:5344.9085-92.49868720911984Clb=3.6m/s t=-57.4C h=-1.0% p=-1.0hPa 403.610 MHz Type=DFM17 ser=22036580 Radiosonde
kc9nikD220365802022-12-05 23:40:0844.9076-92.52098520711850Clb=5.1m/s t=-57.2C h=-1.0% p=-1.0hPa 403.610 MHz Type=DFM17 ser=22036580 Radiosonde
kc9nikD220365802022-12-05 23:39:3544.9068-92.54358719811709Clb=4.8m/s t=-57.2C h=-1.0% p=-1.0hPa 403.610 MHz Type=DFM17 ser=22036580 Radiosonde
kc9nikD220365802022-12-05 23:39:0444.9063-92.56518720211560Clb=5.3m/s t=-56.8C h=-1.0% p=-1.0hPa 403.610 MHz Type=DFM17 ser=22036580 Radiosonde
kc9nikD220365802022-12-05 23:38:3344.9052-92.58868621511410Clb=5.2m/s t=-56.7C h=-1.0% p=-1.0hPa 403.610 MHz Type=DFM17 ser=22036580 Radiosonde
kc9nikD220365802022-12-05 23:38:0244.904-92.61158720911263Clb=5.2m/s t=-56.3C h=-1.0% p=-1.0hPa 403.610 MHz Type=DFM17 ser=22036580 Radiosonde
kc9nikD220365802022-12-05 23:37:5844.9033-92.63448621311103Clb=6.2m/s t=-55.3C h=-1.0% p=-1.0hPa 403.610 MHz Type=DFM17 ser=22036580 Radiosonde
kc9nikD220365802022-12-05 23:37:3044.9025-92.65798720910942Clb=4.4m/s t=-55.7C h=-1.0% p=-1.0hPa 403.610 MHz Type=DFM17 ser=22036580 Radiosonde
kc9nikD220365802022-12-05 23:36:4144.9019-92.68118922810795Clb=4.3m/s t=-55.2C h=-1.0% p=-1.0hPa 403.610 MHz Type=DFM17 ser=22036580 Radiosonde
kc9nikD220365802022-12-05 23:35:5844.901-92.70488721910643Clb=4.8m/s t=-54.4C h=-1.0% p=-1.0hPa 403.610 MHz Type=DFM17 ser=22036580 Radiosonde
kc9nikD220365802022-12-05 23:35:2744.9002-92.72868522010501Clb=4.3m/s t=-54.0C h=-1.0% p=-1.0hPa 403.610 MHz Type=DFM17 ser=22036580 Radiosonde
kc9nikD220365802022-12-05 23:34:5644.8986-92.75268421710356Clb=3.3m/s t=-53.7C h=-1.0% p=-1.0hPa 403.610 MHz Type=DFM17 ser=22036580 Radiosonde
kc9nikD220365802022-12-05 23:34:2544.8967-92.77718221510223Clb=3.5m/s t=-54.2C h=-1.0% p=-1.0hPa 403.610 MHz Type=DFM17 ser=22036580 Radiosonde
kc9nikD220365802022-12-05 23:33:5544.8951-92.8018521110077Clb=5.9m/s t=-54.0C h=-1.0% p=-1.0hPa 403.610 MHz Type=DFM17 ser=22036580 Radiosonde
kc9nikD220365802022-12-05 23:33:3744.8935-92.8241812179936Clb=3.5m/s t=-53.8C h=-1.0% p=-1.0hPa 403.610 MHz Type=DFM17 ser=22036580 Radiosonde
kc9nikD220365802022-12-05 23:33:0944.892-92.8479852079786Clb=6.1m/s t=-54.1C h=-1.0% p=-1.0hPa 403.610 MHz Type=DFM17 ser=22036580 Radiosonde
kc9nikD220365802022-12-05 23:32:2644.8908-92.8704841949639Clb=3.7m/s t=-53.6C h=-1.0% p=-1.0hPa 403.610 MHz Type=DFM17 ser=22036580 Radiosonde
kc9nikD220365802022-12-05 23:31:5044.8897-92.8903881939506Clb=5.3m/s t=-52.8C h=-1.0% p=-1.0hPa 403.610 MHz Type=DFM17 ser=22036580 Radiosonde
kc9nikD220365802022-12-05 23:31:1944.8886-92.913862049352Clb=5.7m/s t=-52.9C h=-1.0% p=-1.0hPa 403.610 MHz Type=DFM17 ser=22036580 Radiosonde
kc9nikD220365802022-12-05 23:30:4744.8872-92.9335791969210Clb=4.2m/s t=-52.3C h=-1.0% p=-1.0hPa 403.610 MHz Type=DFM17 ser=22036580 Radiosonde
kc9nikD220365802022-12-05 23:30:1644.8853-92.9548831899069Clb=4.7m/s t=-51.5C h=-1.0% p=-1.0hPa 403.610 MHz Type=DFM17 ser=22036580 Radiosonde
kc9nikD220365802022-12-05 23:29:4544.8832-92.976821948925Clb=5.1m/s t=-50.5C h=-1.0% p=-1.0hPa 403.610 MHz Type=DFM17 ser=22036580 Radiosonde
kc9nikD220365802022-12-05 23:29:1644.8814-92.9972811898789Clb=5.1m/s t=-49.8C h=-1.0% p=-1.0hPa 403.610 MHz Type=DFM17 ser=22036580 Radiosonde
kc9nikD220365802022-12-05 23:28:5444.8793-93.0183801948652Clb=3.9m/s t=-48.7C h=-1.0% p=-1.0hPa 403.610 MHz Type=DFM17 ser=22036580 Radiosonde
kc9nikD220365802022-12-05 23:28:1544.8766-93.0411811988492Clb=4.4m/s t=-47.6C h=-1.0% p=-1.0hPa 403.610 MHz Type=DFM17 ser=22036580 Radiosonde
kc9nikD220365802022-12-05 23:27:4144.8741-93.0598791948370Clb=4.5m/s t=-46.6C h=-1.0% p=-1.0hPa 403.610 MHz Type=DFM17 ser=22036580 Radiosonde
kc9nikD220365802022-12-05 23:27:1044.8717-93.0807801818235Clb=2.9m/s t=-45.8C h=-1.0% p=-1.0hPa 403.610 MHz Type=DFM17 ser=22036580 Radiosonde
kc9nikD220365802022-12-05 23:26:3944.8689-93.1036801948082Clb=5.4m/s t=-44.7C h=-1.0% p=-1.0hPa 403.610 MHz Type=DFM17 ser=22036580 Radiosonde
kc9nikD220365802022-12-05 23:26:0844.8666-93.1213801937964Clb=3.7m/s t=-43.9C h=-1.0% p=-1.0hPa 403.610 MHz Type=DFM17 ser=22036580 Radiosonde
kc9nikD220365802022-12-05 23:25:3744.8639-93.1424821937825Clb=4.7m/s t=-43.1C h=-1.0% p=-1.0hPa 403.610 MHz Type=DFM17 ser=22036580 Radiosonde
kc9nikD220365802022-12-05 23:25:0644.8614-93.1633761837678Clb=4.0m/s t=-42.1C h=-1.0% p=-1.0hPa 403.610 MHz Type=DFM17 ser=22036580 Radiosonde
kc9nikD220365802022-12-05 23:24:4144.859-93.1835791837494Clb=7.0m/s t=-40.8C h=-1.0% p=-1.0hPa 403.610 MHz Type=DFM17 ser=22036580 Radiosonde
kc9nikD220365802022-12-05 23:24:0444.8558-93.2118791897252Clb=5.8m/s t=-39.5C h=-1.0% p=-1.0hPa 403.610 MHz Type=DFM17 ser=22036580 Radiosonde
kc9nikD220365802022-12-05 23:23:3344.8538-93.2254781877110Clb=7.5m/s t=-38.4C h=-1.0% p=-1.0hPa 403.610 MHz Type=DFM17 ser=22036580 Radiosonde